• Join FlightAware (Why Join?)
  • Login
  • US Flag 
12:14AM EST


 

Airport Tracker/Info


-or-


 

Live Flight TrackerFlight Track Log ✈ N173DS ✈ 01-Jan-2014 ✈ KTPA - KBTR

Flight Track Log - Related Links

Times and Time Zones

All times are in EST time to prevent confusion due to time zone crossing. See the N173DS flight status page for this flight to view local times or setup timezone preferences in your user account.

Time Position Orientation Groundspeed Altitude Reporting Facility
EST Latitude Longitude Course Direction KTS MPH feet Rate Location/Type
05:47PM 27.9833 -82.5333 360° North 157 181 600  Level Tampa TRACON
05:48PM 28.0167 -82.5333 360° North 199 229 1,400 1,440 Climbing Tampa TRACON
05:49PM 28.0833 -82.5333 360° North 261 300 2,800 1,500 Climbing Tampa TRACON
05:50PM 28.1500 -82.5667 336° Northwest 282 325 4,500 1,860 Climbing Tampa TRACON
05:52PM 28.0594 -82.6839 229° Southwest 286 329 8,100 2,040 Climbing Miami Center
05:53PM 27.9967 -82.7417 219° Southwest 292 336 10,300 2,160 Climbing Miami Center
05:54PM 27.9272 -82.8039 218° Southwest 297 342 12,500 2,400 Climbing Miami Center
05:55PM 27.8556 -82.8728 220° Southwest 322 371 15,200 2,700 Climbing Miami Center
05:56PM 27.7794 -82.9439 220° Southwest 342 394 17,900 3,000 Climbing Miami Center
05:57PM 27.7056 -83.0125 219° Southwest 347 399 21,300 3,000 Climbing Miami Center
05:58PM 27.6722 -83.1139 250° West 455 524 23,900 2,400 Climbing Miami Center
05:59PM 27.6881 -83.2272 279° West 397 457 26,200 2,100 Climbing Miami Center
06:00PM 27.7372 -83.3378 297° West 389 448 28,100 1,620 Climbing Miami Center
06:01PM 27.7822 -83.4506 294° West 394 453 29,500 1,320 Climbing Miami Center
06:02PM 27.8331 -83.5708 296° West 405 466 30,800 1,620 Climbing Miami Center
06:03PM 27.8778 -83.6836 294° West 405 466 32,800 1,500 Climbing Miami Center
06:05PM 27.9869 -83.9572 294° West 398 458 36,100 1,380 Climbing Jacksonville Center
06:06PM 28.0297 -84.0728 293° West 398 458 37,600 1,500 Climbing Jacksonville Center
06:07PM 28.0767 -84.1864 295° West 398 458 39,100 1,200 Climbing Jacksonville Center
06:08PM 28.1214 -84.2950 295° West 393 452 40,000 420 Climbing Jacksonville Center
06:09PM 28.1558 -84.3992 291° West 393 452 40,000  Level Jacksonville Center
06:10PM 28.1981 -84.5106 293° West 393 452 40,000  Level Jacksonville Center
06:11PM 28.2406 -84.6267 293° West 393 452 40,000  Level Jacksonville Center
06:12PM 28.2869 -84.7358 296° West 393 452 40,000  Level Jacksonville Center
06:13PM 28.3292 -84.8497 293° West 393 452 40,000  Level Jacksonville Center
06:14PM 28.3689 -84.9686 291° West 401 461 40,000  Level Jacksonville Center
06:15PM 28.4172 -85.0758 297° West 396 456 40,000  Level Jacksonville Center
06:16PM 28.4592 -85.1922 292° West 396 456 40,000  Level Jacksonville Center
06:17PM 28.5008 -85.3089 292° West 396 456 40,000  Level Jacksonville Center
06:18PM 28.5425 -85.4186 293° West 396 456 40,000  Level Jacksonville Center
06:19PM 28.5861 -85.5333 293° West 396 456 40,000  Level Jacksonville Center
06:20PM 28.6294 -85.6503 293° West 396 456 40,000  Level Jacksonville Center
06:21PM 28.6728 -85.7675 293° West 402 463 40,000  Level Jacksonville Center
06:22PM 28.7183 -85.8800 295° West 396 456 40,000  Level Jacksonville Center
06:23PM 28.7592 -85.9972 292° West 396 456 40,000  Level Jacksonville Center
06:24PM 28.8025 -86.1075 294° West 396 456 40,000  Level Jacksonville Center
06:25PM 28.8453 -86.2275 292° West 396 456 40,000  Level Jacksonville Center
06:26PM 28.8903 -86.3428 294° West 396 456 40,000  Level Jacksonville Center
06:27PM 28.9311 -86.4556 292° West 396 456 40,000  Level Jacksonville Center
06:28PM 28.9717 -86.5686 292° West 396 456 40,000  Level Jacksonville Center
06:29PM 29.0122 -86.6842 292° West 396 456 40,000  Level Jacksonville Center
06:30PM 29.0544 -86.8022 292° West 396 456 40,000  Level Jacksonville Center
06:31PM 29.0969 -86.9153 293° West 396 456 40,000  Level Jacksonville Center
06:32PM 29.1369 -87.0311 292° West 396 456 40,000  Level Jacksonville Center
06:34PM 29.1964 -87.1933 293° West 396 456 40,000  Level Houston Center
06:35PM 29.2386 -87.3092 293° West 394 453 40,000  Level Houston Center
06:36PM 29.2881 -87.4486 292° West 395 455 40,000  Level Houston Center
06:37PM 29.3306 -87.5661 293° West 399 459 40,000  Level Houston Center
06:38PM 29.3683 -87.6767 291° West 397 457 40,000  Level Houston Center
06:39PM 29.4103 -87.7950 292° West 400 460 40,000  Level Houston Center
06:40PM 29.4508 -87.9119 292° West 397 457 40,000  Level Houston Center
06:41PM 29.4908 -88.0294 291° West 396 456 40,000  Level Houston Center
06:42PM 29.5403 -88.1686 292° West 394 453 40,000  Level Houston Center
06:43PM 29.5814 -88.2867 292° West 398 458 40,000  Level Houston Center
06:44PM 29.6211 -88.4011 292° West 397 457 40,000  Level Houston Center
06:45PM 29.6625 -88.5189 292° West 397 457 40,000 -240 Level Houston Center
06:46PM 29.7022 -88.6358 291° West 397 457 39,600 -900 Descending Houston Center
06:47PM 29.7419 -88.7550 291° West 399 459 38,200 -1,440 Descending Houston Center
06:48PM 29.7847 -88.8783 292° West 412 474 36,700 -1,860 Descending Houston Center
06:49PM 29.8342 -89.0253 291° West 410 472 34,500 -1,980 Descending Houston Center
06:50PM 29.8744 -89.1450 291° West 404 465 32,700 -1,800 Descending Houston Center
06:51PM 29.9161 -89.2672 291° West 409 471 30,900 -1,800 Descending Houston Center
06:52PM 29.9586 -89.3931 291° West 418 481 29,100 -1,800 Descending Houston Center
06:53PM 29.9994 -89.5178 291° West 417 480 27,300 -1,800 Descending Houston Center
06:54PM 30.0417 -89.6444 291° West 422 486 25,500 -1,860 Descending Houston Center
06:55PM 30.0831 -89.7656 292° West 406 467 23,500 -1,980 Descending Houston Center
06:56PM 30.1203 -89.8814 290° West 384 442 21,500 -2,040 Descending Houston Center
06:57PM 30.1567 -89.9919 291° West 368 423 19,400 -1,980 Descending Houston Center
06:57PM 30.1697 -90.0297 292° West 362 417 19,000 -780 Descending Houston Center
06:58PM 30.1858 -90.0794 291° West 359 413 18,900 -420 Descending Houston Center
06:58PM 30.1931 -90.0997 292° West 361 415 18,700 -1,140 Descending Houston Center
06:59PM 30.2228 -90.1886 291° West 338 389 17,700 -1,080 Descending Houston Center
06:59PM 30.2269 -90.2014 291° West 341 392 17,600 -1,380 Descending Houston Center
07:00PM 30.2508 -90.2886 288° West 325 374 16,300 -1,800 Descending Houston Center
07:00PM 30.2589 -90.3225 285° West 330 380 15,800 -1,560 Descending Houston Center
07:01PM 30.2628 -90.4083 273° West 321 369 14,600 -1,500 Descending Houston Center
07:01PM 30.2656 -90.4267 280° West 323 372 14,300 -1,920 Descending Houston Center
07:02PM 30.2700 -90.5117 273° West 322 371 12,700 -1,980 Descending Houston Center
07:02PM 30.2703 -90.5297 271° West 321 369 12,300 -2,220 Descending Houston Center
07:03PM 30.2706 -90.6056 270° West 320 368 10,700 -2,220 Descending Houston Center
07:03PM 30.2761 -90.6317 284° West 318 366 10,100 -1,920 Descending Houston Center
07:04PM 30.3217 -90.7156 302° West 309 356 8,100 -1,080 Descending Houston Center
07:05PM 30.3783 -90.7781 316° Northwest 288 331 8,000 -300 Descending Houston Center
07:06PM 30.4350 -90.8358 319° Northwest 274 315 7,500 -1,080 Descending Houston Center
07:07PM 30.4928 -90.8989 317° Northwest 278 320 5,900 -1,920 Descending Houston Center
07:08PM 30.5603 -90.9764 315° West 283 326 3,600 -1,560 Descending Houston Center
07:09PM 30.6111 -91.0367 314° West 283 326 2,800 -840 Descending Houston Center
07:11PM 30.5471 -91.1293 283° West  Level Estimated
07:18PM 30.5329 -91.1499 283° West  Level Estimated
07:19PM 30.5329 -91.1499 283° West  Level Estimated
07:20PM 30.5329 -91.1499 283° West  Level Estimated
07:21PM 30.5329 -91.1499 283° West  Level Estimated
07:22PM 30.5329 -91.1499 283° West  Level Estimated
07:23PM 30.5329 -91.1499 283° West  Level Estimated
07:24PM 30.5329 -91.1499 283° West  Level Estimated
07:25PM 30.5329 -91.1499 283° West  Level Estimated